Sherwood, Arkansas
Current Conditions -  °F | °C
As of 11:53 PM on Friday 19 Dec 2014 (Local Time) from KLIT Reporting Station
Overcast Overcast  
Wind Chill: 41°   Ceiling: 5500
Heat Index: 41°   Visibility: 10mi
Dew Point: 35°   Wind: 3mph
Humidity: 79%   Direction: 40°NE
Pressure: 30.25"   Gusts: NA
Location:  34.83°N, 92.21°W
Report Text: KLIT 200553Z 04003KT 10SM OVC055 05/02 A3025 RMK AO2 SLP247 T00500017 10061 20050 400670050 53000
Loading
Personal Weather Stations






























Interactive Weather Map New forecast layout! Learn more

10-Day Weather Forecast

Advertisements
Track Severe Weather on mobile